Time;durP1;ratioP1;P1;durP2;ratioP2;P2;SDS_P1;SDS_P2;PMS_P1;PMS_P2;Temp;Humidity;BMP_temperature;BMP_pressure;BME280_temperature;BME280_humidity;BME280_pressure;Samples;Min_cycle;Max_cycle;Signal;HPM_P1;HPM_P2
2022/06/17 00:00:20;;;;;;;6.82;4.20;;;18.40;99.90;;;;;;4939073;29;20431;-80
2022/06/17 00:02:46;;;;;;;10.00;4.82;;;18.40;99.90;;;;;;4939124;29;20159;-82
2022/06/17 00:05:12;;;;;;;7.35;4.72;;;18.40;99.90;;;;;;4937773;29;20047;-79
2022/06/17 00:07:41;;;;;;;6.65;5.25;;;18.40;99.90;;;;;;4941378;29;20071;-79
2022/06/17 00:10:19;;;;;;;6.50;4.65;;;18.30;99.90;;;;;;4942527;28;20023;-81
2022/06/17 00:12:46;;;;;;;7.93;4.45;;;18.40;99.90;;;;;;4939072;29;20028;-80
2022/06/17 00:15:12;;;;;;;9.70;4.40;;;18.50;99.90;;;;;;4951407;29;20027;-78
2022/06/17 00:17:38;;;;;;;10.55;4.10;;;18.60;99.90;;;;;;4950309;29;20035;-81
2022/06/17 00:20:11;;;;;;;5.78;3.97;;;18.70;99.90;;;;;;4944694;29;20035;-79
2022/06/17 00:22:40;;;;;;;5.45;3.75;;;18.60;99.90;;;;;;4947284;29;20028;-79
2022/06/17 00:25:24;;;;;;;5.68;4.10;;;18.60;99.90;;;;;;4945718;29;20032;-80
2022/06/17 00:27:51;;;;;;;6.82;3.92;;;18.60;99.90;;;;;;4948041;29;20031;-79
2022/06/17 00:30:19;;;;;;;6.18;4.07;;;18.70;99.90;;;;;;4949360;29;20056;-80
2022/06/17 00:32:45;;;;;;;6.20;4.10;;;18.70;99.90;;;;;;4949394;29;20047;-79
2022/06/17 00:35:12;;;;;;;5.43;3.90;;;18.70;99.90;;;;;;4950701;29;20027;-80
2022/06/17 00:37:41;;;;;;;4.68;3.70;;;18.70;99.90;;;;;;4949988;29;20031;-81
2022/06/17 00:40:20;;;;;;;4.68;3.60;;;18.60;99.90;;;;;;4941345;29;20055;-81
2022/06/17 00:42:47;;;;;;;5.97;3.92;;;18.60;99.90;;;;;;4947473;29;20114;-81
2022/06/17 00:45:25;;;;;;;4.30;3.17;;;18.60;99.90;;;;;;4952127;29;20035;-79
2022/06/17 00:48:01;;;;;;;9.40;3.47;;;18.60;99.90;;;;;;4945506;29;20032;-81
2022/06/17 00:50:38;;;;;;;6.38;3.78;;;18.50;99.90;;;;;;4937673;29;20028;-81
2022/06/17 00:53:22;;;;;;;4.88;3.40;;;18.60;99.90;;;;;;4937669;29;20048;-80
2022/06/17 00:56:02;;;;;;;5.60;3.47;;;18.60;99.90;;;;;;4943969;29;20032;-79
2022/06/17 00:58:52;;;;;;;5.88;3.97;;;18.50;99.90;;;;;;4942209;29;20055;-80
2022/06/17 01:01:18;;;;;;;9.45;3.85;;;18.60;99.90;;;;;;4939789;29;20500;-80
2022/06/17 01:03:46;;;;;;;7.13;3.47;;;18.50;99.90;;;;;;4945644;29;20031;-81
2022/06/17 01:06:18;;;;;;;8.43;3.78;;;18.50;99.90;;;;;;4937197;29;20078;-80
2022/06/17 01:12:06;;;;;;;6.25;3.80;;;18.50;99.90;;;;;;4937841;29;20092;-79
2022/06/17 01:14:32;;;;;;;7.68;3.72;;;18.50;99.90;;;;;;4949106;29;20051;-79
2022/06/17 01:16:59;;;;;;;7.28;3.65;;;18.60;99.90;;;;;;4946287;29;20141;-81
2022/06/17 01:19:42;;;;;;;7.68;3.55;;;18.60;99.90;;;;;;4948078;29;20039;-78
2022/06/17 01:22:27;;;;;;;6.50;3.33;;;18.60;99.90;;;;;;4952002;29;20032;-80
2022/06/17 01:25:05;;;;;;;6.80;3.58;;;18.50;99.90;;;;;;4947550;29;20028;-80
2022/06/17 01:27:52;;;;;;;5.05;3.88;;;18.40;99.90;;;;;;4943577;29;20032;-80
2022/06/17 01:30:22;;;;;;;4.40;3.63;;;18.40;99.90;;;;;;4942250;29;20032;-80
2022/06/17 01:33:03;;;;;;;5.85;3.38;;;18.30;99.90;;;;;;4940937;29;20059;-81
2022/06/17 01:35:36;;;;;;;8.13;3.78;;;18.30;99.90;;;;;;4941065;29;20452;-79
2022/06/17 01:38:02;;;;;;;6.90;4.15;;;18.30;99.90;;;;;;4941880;29;20126;-80
2022/06/17 01:40:29;;;;;;;5.55;3.60;;;18.30;99.90;;;;;;4958684;29;20028;-80
2022/06/17 01:43:01;;;;;;;6.18;3.33;;;18.40;99.90;;;;;;4959578;29;20051;-79
2022/06/17 01:45:28;;;;;;;9.82;4.18;;;18.40;99.90;;;;;;4953711;29;20032;-78
2022/06/17 01:47:54;;;;;;;5.00;3.60;;;18.40;99.90;;;;;;4952036;29;20020;-80
2022/06/17 01:50:27;;;;;;;4.50;3.70;;;18.40;99.90;;;;;;4952426;29;20047;-80
2022/06/17 01:52:57;;;;;;;5.25;4.15;;;18.40;99.90;;;;;;4950405;29;20027;-80
2022/06/17 01:55:29;;;;;;;5.22;4.40;;;18.40;99.90;;;;;;4954101;29;20047;-79
2022/06/17 01:58:02;;;;;;;8.55;4.13;;;18.30;99.90;;;;;;4958677;29;20060;-79
2022/06/17 02:00:31;;;;;;;;;;;18.30;99.90;;;;;;4958935;28;20011;-79
2022/06/17 02:03:18;;;;;;;7.35;4.15;;;18.30;99.90;;;;;;4961769;28;19903;-80
2022/06/17 02:05:48;;;;;;;3.88;3.35;;;18.30;99.90;;;;;;4962490;28;20024;-78
2022/06/17 02:08:14;;;;;;;8.23;4.38;;;18.30;99.90;;;;;;4945693;29;20023;-78
2022/06/17 02:10:43;;;;;;;5.07;3.60;;;18.20;99.90;;;;;;4958164;29;20039;-78
2022/06/17 02:13:11;;;;;;;6.10;3.90;;;18.20;99.90;;;;;;4961008;28;20027;-79
2022/06/17 02:15:59;;;;;;;7.03;4.75;;;18.20;99.90;;;;;;4960833;28;20027;-79
2022/06/17 02:18:51;;;;;;;;;;;18.20;99.90;;;;;;4950280;29;20059;-80
2022/06/17 02:21:27;;;;;;;11.02;4.80;;;18.20;99.90;;;;;;4944886;29;20112;-81
2022/06/17 02:23:54;;;;;;;6.57;4.20;;;18.20;99.90;;;;;;4943712;29;20067;-79
2022/06/17 02:26:21;;;;;;;6.93;4.68;;;18.20;99.90;;;;;;4943618;29;20031;-80
2022/06/17 02:28:49;;;;;;;7.25;4.28;;;18.20;99.90;;;;;;4943860;29;20031;-80
2022/06/17 02:31:16;;;;;;;8.23;4.80;;;18.20;99.90;;;;;;4950544;29;20122;-80
2022/06/17 02:33:49;;;;;;;6.38;4.55;;;18.30;99.90;;;;;;4947469;29;20472;-81
2022/06/17 02:36:23;;;;;;;6.93;4.85;;;18.20;99.90;;;;;;4951456;29;20114;-78
2022/06/17 02:38:49;;;;;;;15.40;4.80;;;18.20;99.90;;;;;;4950561;29;20051;-78
2022/06/17 02:41:19;;;;;;;6.65;4.75;;;18.20;99.90;;;;;;4951946;29;20027;-78
2022/06/17 02:43:56;;;;;;;6.68;4.40;;;18.20;99.90;;;;;;4950697;29;20032;-79
2022/06/17 02:46:31;;;;;;;11.10;4.50;;;18.20;99.90;;;;;;4950671;29;20031;-80
2022/06/17 02:49:07;;;;;;;7.82;4.35;;;18.20;99.90;;;;;;4948483;29;20036;-78
2022/06/17 02:51:37;;;;;;;8.57;4.93;;;18.20;99.90;;;;;;4956228;29;20063;-79
2022/06/17 02:54:05;;;;;;;7.82;4.43;;;18.20;99.90;;;;;;4951738;29;20040;-78
2022/06/17 02:56:34;;;;;;;6.03;4.28;;;18.30;99.90;;;;;;4950688;29;20071;-79
2022/06/17 02:59:10;;;;;;;6.55;4.80;;;18.30;99.90;;;;;;4952248;29;20056;-79
2022/06/17 03:01:42;;;;;;;9.50;4.78;;;18.20;99.90;;;;;;4947979;29;20123;-81
2022/06/17 03:04:20;;;;;;;8.95;4.45;;;18.20;99.90;;;;;;4943618;29;20035;-81
2022/06/17 03:06:50;;;;;;;7.60;4.53;;;18.20;99.90;;;;;;4942415;29;20058;-80
2022/06/17 03:09:21;;;;;;;7.13;4.45;;;18.30;99.90;;;;;;4939732;29;20400;-82
2022/06/17 03:12:04;;;;;;;7.22;4.72;;;18.40;99.90;;;;;;4940344;29;20031;-81
2022/06/17 03:14:35;;;;;;;8.35;4.80;;;18.40;99.90;;;;;;4937702;29;20542;-80
2022/06/17 03:17:07;;;;;;;7.38;4.55;;;18.40;99.90;;;;;;4939843;29;20031;-81
2022/06/17 03:19:36;;;;;;;7.00;4.53;;;18.40;99.90;;;;;;4964710;23;20070;-85
2022/06/17 03:22:04;;;;;;;8.45;4.28;;;18.40;99.90;;;;;;4950195;29;20024;-81
2022/06/17 03:24:59;;;;;;;8.30;4.63;;;18.50;99.90;;;;;;4951241;29;20035;-82
2022/06/17 03:27:36;;;;;;;;;;;18.50;99.90;;;;;;4960201;28;20099;-83
2022/06/17 03:30:05;;;;;;;8.73;4.57;;;18.50;99.90;;;;;;4959888;28;19915;-83
2022/06/17 03:32:36;;;;;;;9.73;4.63;;;18.50;99.90;;;;;;4959786;28;20007;-82
2022/06/17 03:35:03;;;;;;;8.65;4.70;;;18.40;99.90;;;;;;4960706;28;20085;-82
2022/06/17 03:37:35;;;;;;;6.35;4.82;;;18.50;99.90;;;;;;4960487;28;20084;-83
2022/06/17 03:40:11;;;;;;;11.18;4.95;;;18.60;99.90;;;;;;4955371;29;20035;-83
2022/06/17 03:42:45;;;;;;;5.38;4.35;;;18.50;99.90;;;;;;4948488;29;20056;-85
2022/06/17 03:45:16;;;;;;;10.15;4.93;;;18.50;99.90;;;;;;4947136;29;20503;-83
2022/06/17 03:47:57;;;;;;;4.78;4.20;;;18.40;99.90;;;;;;4947531;29;20393;-84
2022/06/17 03:50:32;;;;;;;10.40;4.57;;;18.40;99.90;;;;;;4960366;28;20023;-81
2022/06/17 03:53:21;;;;;;;10.20;4.85;;;18.30;99.90;;;;;;4956415;28;20024;-80
2022/06/17 03:55:51;;;;;;;7.55;5.22;;;18.30;99.90;;;;;;4960165;28;20048;-81
2022/06/17 03:58:19;;;;;;;8.90;4.90;;;18.20;99.90;;;;;;4959710;28;20067;-81
2022/06/17 04:01:15;;;;;;;7.05;4.95;;;18.20;99.90;;;;;;4959632;28;20044;-83
2022/06/17 04:03:50;;;;;;;12.68;5.20;;;18.20;99.90;;;;;;4950848;29;20095;-84
2022/06/17 04:06:23;;;;;;;7.78;4.53;;;18.20;99.90;;;;;;4948084;29;20038;-84
2022/06/17 04:08:54;;;;;;;9.70;5.10;;;18.30;99.90;;;;;;4947347;29;20062;-84
2022/06/17 04:11:23;;;;;;;9.43;4.57;;;18.30;99.90;;;;;;4932914;29;20028;-86
2022/06/17 04:13:51;;;;;;;10.27;5.15;;;18.30;99.90;;;;;;4949213;29;20055;-85
2022/06/17 04:16:38;;;;;;;6.63;4.95;;;18.30;99.90;;;;;;4931022;29;20032;-86
2022/06/17 04:19:18;;;;;;;6.30;4.90;;;18.30;99.90;;;;;;4947652;29;20051;-85
2022/06/17 04:21:51;;;;;;;9.77;5.05;;;18.30;99.90;;;;;;4945659;29;20109;-86
2022/06/17 04:24:24;;;;;;;7.93;5.32;;;18.20;99.90;;;;;;4946213;29;20080;-86
2022/06/17 04:27:04;;;;;;;10.25;5.47;;;18.30;99.90;;;;;;4947394;29;20091;-84
2022/06/17 04:29:42;;;;;;;14.07;5.07;;;18.40;99.90;;;;;;4947364;29;20023;-84
2022/06/17 04:32:22;;;;;;;6.93;5.10;;;18.50;99.90;;;;;;4948602;29;20034;-85
2022/06/17 04:34:49;;;;;;;9.18;5.22;;;18.50;99.90;;;;;;4947906;29;20134;-85
2022/06/17 04:37:21;;;;;;;8.75;4.97;;;18.60;99.90;;;;;;4956950;28;20059;-84
2022/06/17 04:40:33;;;;;;;13.68;5.40;;;18.60;99.90;;;;;;4956877;28;20043;-83
2022/06/17 04:43:41;;;;;;;7.25;4.93;;;18.60;99.90;;;;;;4954568;28;20027;-85
2022/06/17 04:46:08;;;;;;;9.40;6.30;;;18.70;99.90;;;;;;4958714;28;20051;-84
2022/06/17 04:48:36;;;;;;;7.97;4.85;;;18.90;99.90;;;;;;4942608;29;20052;-84
2022/06/17 04:51:04;;;;;;;12.65;4.80;;;19.10;99.90;;;;;;4958360;28;20040;-83
2022/06/17 04:53:32;;;;;;;5.82;4.43;;;19.50;99.90;;;;;;4942969;28;20016;-83
2022/06/17 04:56:39;;;;;;;7.53;4.80;;;19.80;99.90;;;;;;4945792;28;20038;-84
2022/06/17 04:59:35;;;;;;;9.90;6.85;;;20.00;99.90;;;;;;4962424;28;20019;-84
2022/06/17 05:02:06;;;;;;;9.35;4.90;;;20.10;99.90;;;;;;4959157;29;20095;-85
2022/06/17 05:04:49;;;;;;;8.03;4.97;;;20.10;99.90;;;;;;4955861;29;20044;-86
2022/06/17 05:07:16;;;;;;;7.80;5.35;;;20.20;99.90;;;;;;4957111;28;20291;-86
2022/06/17 05:09:54;;;;;;;7.63;4.97;;;20.20;99.90;;;;;;4940765;29;20059;-86
2022/06/17 05:12:35;;;;;;;13.95;4.97;;;20.30;99.90;;;;;;4956110;29;20028;-84
2022/06/17 05:15:11;;;;;;;8.65;4.68;;;20.10;99.90;;;;;;4959746;29;20137;-83
2022/06/17 05:17:40;;;;;;;5.88;4.85;;;20.00;99.90;;;;;;4960171;29;20053;-84
2022/06/17 05:20:09;;;;;;;9.25;4.65;;;20.00;99.90;;;;;;4959692;29;20036;-85
2022/06/17 05:22:38;;;;;;;13.30;4.60;;;20.20;99.90;;;;;;4961120;28;20031;-83
2022/06/17 05:25:13;;;;;;;7.57;4.45;;;20.30;99.90;;;;;;4952476;28;20040;-83
2022/06/17 05:27:40;;;;;;;13.25;5.28;;;20.60;99.90;;;;;;4944176;29;20044;-86
2022/06/17 05:30:06;;;;;;;7.90;4.95;;;20.50;99.90;;;;;;4959158;28;20023;-85
2022/06/17 05:32:36;;;;;;;12.20;4.72;;;20.50;99.90;;;;;;4952741;28;20032;-88
2022/06/17 05:35:03;;;;;;;9.48;4.75;;;20.60;99.90;;;;;;4938144;29;20062;-86
2022/06/17 05:37:30;;;;;;;9.50;5.20;;;20.70;99.90;;;;;;4939095;29;20095;-85
2022/06/17 05:39:59;;;;;;;10.65;5.30;;;20.70;99.90;;;;;;4936835;29;20034;-87
2022/06/17 05:42:29;;;;;;;12.02;5.60;;;20.60;99.90;;;;;;4941085;29;20035;-84
2022/06/17 05:44:55;;;;;;;15.07;5.18;;;20.50;99.90;;;;;;4949295;29;20109;-85
2022/06/17 05:47:37;;;;;;;9.32;4.93;;;20.50;99.90;;;;;;4947917;29;20032;-87
2022/06/17 05:50:24;;;;;;;5.82;4.35;;;20.60;99.90;;;;;;4953341;28;20028;-85
2022/06/17 05:53:11;;;;;;;11.88;5.22;;;20.60;99.90;;;;;;4943146;29;20031;-85
2022/06/17 05:56:05;;;;;;;9.48;4.85;;;20.70;99.90;;;;;;4953520;28;20099;-84
2022/06/17 05:58:31;;;;;;;11.27;4.72;;;20.80;99.90;;;;;;4947466;28;20039;-87
2022/06/17 06:00:58;;;;;;;11.90;4.90;;;21.00;99.90;;;;;;4942504;29;20019;-87
2022/06/17 06:03:27;;;;;;;12.52;4.90;;;21.10;99.90;;;;;;4940366;29;20032;-87
2022/06/17 06:05:56;;;;;;;11.82;4.57;;;21.20;99.90;;;;;;4942043;29;20026;-86
2022/06/17 06:08:23;;;;;;;9.25;5.38;;;21.10;99.90;;;;;;4945729;29;20052;-85
2022/06/17 06:10:50;;;;;;;15.27;5.85;;;21.20;99.90;;;;;;4945543;29;20294;-87
2022/06/17 06:13:22;;;;;;;9.70;5.53;;;21.10;99.90;;;;;;4945242;29;20034;-87
2022/06/17 06:15:51;;;;;;;9.73;4.90;;;21.20;99.90;;;;;;4953507;29;20032;-90
2022/06/17 06:18:31;;;;;;;12.48;5.30;;;21.30;99.90;;;;;;4952028;29;20023;-88
2022/06/17 06:21:00;;;;;;;8.38;5.32;;;21.40;99.90;;;;;;4954061;28;20040;-87
2022/06/17 06:23:27;;;;;;;9.43;4.63;;;21.40;99.90;;;;;;4953203;29;20107;-88
2022/06/17 06:25:54;;;;;;;10.70;4.80;;;21.50;99.90;;;;;;4952284;28;20051;-87
2022/06/17 06:28:24;;;;;;;7.07;4.80;;;21.50;99.90;;;;;;4936430;29;20036;-87
2022/06/17 06:31:06;;;;;;;11.48;5.25;;;21.30;99.90;;;;;;4951577;29;20499;-87
2022/06/17 06:33:33;;;;;;;10.98;5.30;;;21.10;99.90;;;;;;4953220;29;20028;-87
2022/06/17 06:36:00;;;;;;;6.72;4.60;;;21.00;99.90;;;;;;4937779;29;20123;-87
2022/06/17 06:38:26;;;;;;;8.73;5.03;;;21.00;99.90;;;;;;4942276;29;20065;-87
2022/06/17 06:40:53;;;;;;;12.65;5.78;;;20.80;99.90;;;;;;4949315;28;20083;-85
2022/06/17 06:43:21;;;;;;;10.73;5.22;;;20.80;99.90;;;;;;4942907;29;20123;-85
2022/06/17 06:46:10;;;;;;;8.27;5.50;;;20.90;99.90;;;;;;4948997;28;20040;-86
2022/06/17 06:48:46;;;;;;;6.10;4.68;;;20.90;99.90;;;;;;4945083;29;20102;-87
2022/06/17 06:51:12;;;;;;;7.60;4.93;;;21.20;99.90;;;;;;4948945;29;20059;-85
2022/06/17 06:53:38;;;;;;;8.93;5.38;;;21.40;99.90;;;;;;4935991;29;20028;-86
2022/06/17 06:56:05;;;;;;;14.50;5.35;;;21.40;99.90;;;;;;4947302;29;20280;-88
2022/06/17 06:58:32;;;;;;;7.60;4.97;;;21.50;99.90;;;;;;4943529;29;20052;-89
2022/06/17 07:00:58;;;;;;;13.18;5.80;;;21.50;99.90;;;;;;4943275;29;20023;-88
2022/06/17 07:03:27;;;;;;;10.95;5.47;;;21.50;99.90;;;;;;4932670;29;20659;-86
2022/06/17 07:06:03;;;;;;;8.35;4.68;;;21.70;99.90;;;;;;4929235;29;20032;-84
2022/06/17 07:08:35;;;;;;;6.93;4.60;;;21.80;99.90;;;;;;4946089;28;20028;-88
2022/06/17 07:11:16;;;;;;;6.75;5.00;;;21.90;99.90;;;;;;4960978;28;20032;-89
2022/06/17 07:13:57;;;;;;;7.07;5.15;;;22.00;99.90;;;;;;4961007;28;20023;-89
2022/06/17 07:16:29;;;;;;;12.93;5.25;;;22.20;99.90;;;;;;4960274;28;20055;-89
2022/06/17 07:19:01;;;;;;;6.72;4.68;;;22.30;99.90;;;;;;4959917;28;20083;-88
2022/06/17 07:21:27;;;;;;;9.95;4.65;;;22.40;99.90;;;;;;4944417;28;20023;-89
2022/06/17 07:23:58;;;;;;;7.63;4.90;;;22.60;99.90;;;;;;4959918;28;20094;-89
2022/06/17 07:26:28;;;;;;;10.43;5.00;;;22.70;99.90;;;;;;4960090;28;20047;-91
2022/06/17 07:28:57;;;;;;;6.28;4.20;;;22.90;99.90;;;;;;4944693;29;20019;-90
2022/06/17 07:31:38;;;;;;;10.40;4.72;;;22.90;99.90;;;;;;4959633;28;20047;-88
2022/06/17 07:34:27;;;;;;;7.97;4.32;;;23.10;99.90;;;;;;4925669;29;20024;-90
2022/06/17 07:39:58;;;;;;;10.90;4.13;;;23.60;99.90;;;;;;4941052;29;20024;-88
2022/06/17 07:42:37;;;;;;;8.90;4.78;;;23.40;99.90;;;;;;4925408;29;20024;-91
2022/06/17 07:45:07;;;;;;;8.77;4.30;;;23.50;99.90;;;;;;4925202;29;20095;-88
2022/06/17 07:47:42;;;;;;;11.82;5.03;;;23.70;99.90;;;;;;4940863;29;20027;-89
2022/06/17 07:50:27;;;;;;;6.68;4.20;;;23.70;99.90;;;;;;4925060;29;20048;-88
2022/06/17 07:52:59;;;;;;;9.63;5.18;;;23.50;99.90;;;;;;4925159;29;20036;-88
2022/06/17 07:55:29;;;;;;;9.52;4.88;;;23.50;99.90;;;;;;4925482;29;20051;-88
2022/06/17 07:58:03;;;;;;;6.75;4.50;;;23.50;99.90;;;;;;4926268;29;20044;-88
2022/06/17 08:00:38;;;;;;;9.75;4.63;;;23.30;99.90;;;;;;4925013;29;20020;-89
2022/06/17 08:03:08;;;;;;;5.93;4.32;;;23.30;99.90;;;;;;4925093;29;20040;-89
2022/06/17 08:05:35;;;;;;;14.98;6.20;;;23.20;99.90;;;;;;4940518;29;20043;-90
2022/06/17 08:08:08;;;;;;;18.05;10.63;;;23.30;99.90;;;;;;4924112;29;20040;-90
2022/06/17 08:10:37;;;;;;;7.97;4.78;;;23.50;99.90;;;;;;4931053;29;20079;-88
2022/06/17 08:13:07;;;;;;;7.57;4.28;;;23.50;99.90;;;;;;4946977;29;20031;-90
2022/06/17 08:15:39;;;;;;;9.00;4.97;;;23.40;99.90;;;;;;4953512;29;20032;-88
2022/06/17 08:21:01;;;;;;;9.25;4.70;;;23.30;99.90;;;;;;4949573;29;20083;-87
2022/06/17 08:23:42;;;;;;;10.45;4.40;;;23.30;99.90;;;;;;4933982;29;20024;-89
2022/06/17 08:26:20;;;;;;;11.13;4.63;;;23.40;99.90;;;;;;4959352;28;20047;-89
2022/06/17 08:28:47;;;;;;;7.18;4.47;;;23.40;99.90;;;;;;4957078;28;20028;-90
2022/06/17 08:31:15;;;;;;;11.23;4.57;;;23.60;99.90;;;;;;4950223;28;20032;-91
2022/06/17 08:33:42;;;;;;;5.65;4.50;;;23.70;99.90;;;;;;4928380;29;20059;-89
2022/06/17 08:36:12;;;;;;;8.48;5.43;;;23.80;99.90;;;;;;4942664;29;20043;-88
2022/06/17 08:38:46;;;;;;;6.60;4.03;;;23.90;99.90;;;;;;4940741;29;20164;-87
2022/06/17 08:41:26;;;;;;;7.47;3.93;;;23.90;99.90;;;;;;4933228;29;20043;-90
2022/06/17 08:44:00;;;;;;;9.23;5.13;;;24.00;99.90;;;;;;4947431;29;20280;-88
2022/06/17 08:46:26;;;;;;;;;;;24.00;99.90;;;;;;4916264;29;20039;-89
2022/06/17 08:49:30;;;;;;;8.27;4.60;;;24.00;99.90;;;;;;4932290;29;19978;-89
2022/06/17 08:52:26;;;;;;;9.18;4.18;;;23.90;99.90;;;;;;4934165;29;20103;-89
2022/06/17 08:54:52;;;;;;;8.10;4.15;;;23.90;99.90;;;;;;4933038;29;20079;-88
2022/06/17 08:57:21;;;;;;;8.32;4.20;;;24.00;99.10;;;;;;4932915;29;20020;-89
2022/06/17 09:00:06;;;;;;;8.50;4.30;;;23.90;99.50;;;;;;4931889;29;20036;-89
2022/06/17 09:02:44;;;;;;;5.18;3.78;;;24.00;99.20;;;;;;4934824;29;20128;-89
2022/06/17 09:05:51;;;;;;;7.05;3.97;;;24.10;98.80;;;;;;4937847;29;20088;-89
2022/06/17 09:08:26;;;;;;;7.38;4.10;;;24.20;98.40;;;;;;4935521;29;20048;-88
2022/06/17 09:10:57;;;;;;;;;;;24.20;98.20;;;;;;4939866;29;20024;-87
2022/06/17 09:13:58;;;;;;;5.97;3.55;;;24.20;98.10;;;;;;4940035;29;19939;-88
2022/06/17 09:16:40;;;;;;;8.00;4.00;;;24.20;98.10;;;;;;4942682;28;20024;-88
2022/06/17 09:19:08;;;;;;;6.45;3.65;;;24.40;98.00;;;;;;4940194;29;20016;-87
2022/06/17 09:21:53;;;;;;;14.63;4.25;;;24.40;97.10;;;;;;4940219;29;20084;-86
2022/06/17 09:24:21;;;;;;;;;;;24.40;97.10;;;;;;4940304;29;20032;-88
2022/06/17 09:27:03;;;;;;;8.23;3.97;;;24.30;97.30;;;;;;4940427;29;19895;-88
2022/06/17 09:29:45;;;;;;;10.27;3.72;;;24.40;97.20;;;;;;4940175;29;20036;-88
2022/06/17 09:32:20;;;;;;;6.13;4.88;;;24.40;96.80;;;;;;4951915;23;20111;-84
2022/06/17 09:35:04;;;;;;;7.30;3.88;;;24.40;97.00;;;;;;4944834;29;20035;-85
2022/06/17 09:37:39;;;;;;;6.72;4.03;;;24.60;97.10;;;;;;4944205;29;20047;-85
2022/06/17 09:40:08;;;;;;;;;;;24.80;96.20;;;;;;4947136;28;20046;-84
2022/06/17 09:42:40;;;;;;;6.93;3.63;;;25.00;95.80;;;;;;4938509;29;19946;-86
2022/06/17 09:45:20;;;;;;;12.15;3.72;;;25.20;94.80;;;;;;4941413;29;20047;-85
2022/06/17 09:47:57;;;;;;;10.13;3.78;;;25.60;95.60;;;;;;4947872;28;20016;-86
2022/06/17 09:50:35;;;;;;;7.90;3.92;;;26.00;94.90;;;;;;4946241;28;20071;-84
2022/06/17 09:53:12;;;;;;;7.18;3.75;;;26.40;94.60;;;;;;4939915;29;20061;-84
2022/06/17 09:55:44;;;;;;;12.38;9.18;;;26.80;93.90;;;;;;4938925;29;20035;-85
2022/06/17 09:58:30;;;;;;;42.05;22.55;;;26.60;94.10;;;;;;4939336;29;20103;-86
2022/06/17 10:00:57;;;;;;;8.88;3.72;;;26.90;94.10;;;;;;4942294;29;20083;-83
2022/06/17 10:03:32;;;;;;;6.35;4.00;;;27.40;93.20;;;;;;4930646;29;20039;-83
2022/06/17 10:06:07;;;;;;;7.18;3.42;;;27.90;92.60;;;;;;4943903;29;20087;-84
2022/06/17 10:08:39;;;;;;;8.15;4.03;;;28.90;91.20;;;;;;4944957;29;20031;-83
2022/06/17 10:11:26;;;;;;;9.85;3.85;;;29.30;89.20;;;;;;4942365;29;20071;-83
2022/06/17 10:14:18;;;;;;;5.50;3.25;;;29.70;86.90;;;;;;4945389;29;20030;-88
2022/06/17 10:20:16;;;;;;;2.90;2.45;;;30.70;82.50;;;;;;4947794;29;20054;-87
2022/06/17 10:23:23;;;;;;;5.43;2.88;;;31.10;80.00;;;;;;4944062;29;20027;-88
2022/06/17 10:26:21;;;;;;;7.38;2.70;;;31.50;78.90;;;;;;4918809;29;20048;-85
2022/06/17 10:29:36;;;;;;;3.00;2.17;;;32.50;76.70;;;;;;4948924;28;20066;-86
2022/06/17 10:32:03;;;;;;;5.57;2.67;;;33.60;73.60;;;;;;4956379;28;20038;-86
2022/06/17 10:34:46;;;;;;;4.32;2.38;;;33.50;71.70;;;;;;4942235;29;20035;-87
2022/06/17 10:37:15;;;;;;;4.88;2.42;;;34.30;68.70;;;;;;4944528;29;20040;-86
2022/06/17 10:39:43;;;;;;;2.80;1.88;;;33.50;69.40;;;;;;4923572;29;20032;-87
2022/06/17 10:42:15;;;;;;;4.65;1.90;;;34.00;67.80;;;;;;4940126;29;20028;-89
2022/06/17 10:44:44;;;;;;;7.97;2.42;;;33.50;66.70;;;;;;4936262;29;20479;-88
2022/06/17 10:47:16;;;;;;;2.95;2.00;;;32.50;68.20;;;;;;4935787;29;20115;-86
2022/06/17 10:49:48;;;;;;;10.85;2.40;;;31.60;68.70;;;;;;4939116;29;20035;-87
2022/06/17 10:52:34;;;;;;;5.32;2.53;;;30.90;69.60;;;;;;4940685;29;20028;-86
2022/06/17 10:55:03;;;;;;;3.45;2.03;;;31.60;68.60;;;;;;4939531;29;20028;-87
2022/06/17 10:57:37;;;;;;;5.43;2.35;;;31.80;67.60;;;;;;4941270;29;20043;-86
2022/06/17 11:00:26;;;;;;;4.78;2.20;;;31.50;68.20;;;;;;4948179;29;20019;-86
2022/06/17 11:02:52;;;;;;;7.32;2.08;;;31.60;67.40;;;;;;4942747;29;20082;-87
2022/06/17 11:05:34;;;;;;;2.55;1.90;;;31.80;67.40;;;;;;4942307;28;20064;-87
2022/06/17 11:08:00;;;;;;;5.18;1.95;;;32.80;66.20;;;;;;4941853;28;20032;-87
2022/06/17 11:10:30;;;;;;;4.90;1.95;;;34.80;63.80;;;;;;4934739;29;20087;-87
2022/06/17 11:13:04;;;;;;;3.88;2.20;;;35.30;61.70;;;;;;4941161;29;20031;-86
2022/06/17 11:15:34;;;;;;;6.97;2.07;;;35.70;61.10;;;;;;4942237;29;20143;-85
2022/06/17 11:18:13;;;;;;;2.97;1.92;;;35.40;60.60;;;;;;4940075;29;20020;-86
2022/06/17 11:20:39;;;;;;;4.20;1.88;;;34.50;61.00;;;;;;4935824;29;20035;-86
2022/06/17 11:23:18;;;;;;;3.63;1.80;;;33.50;61.90;;;;;;4939902;29;20080;-86
2022/06/17 11:25:46;;;;;;;4.18;2.08;;;33.10;61.70;;;;;;4939058;29;20039;-85
2022/06/17 11:28:25;;;;;;;3.75;2.00;;;33.50;61.10;;;;;;4933433;29;20039;-85
2022/06/17 11:31:01;;;;;;;3.08;1.80;;;33.90;60.70;;;;;;4941395;29;20027;-85
2022/06/17 11:33:32;;;;;;;6.50;1.75;;;34.00;60.30;;;;;;4940838;29;20035;-86
2022/06/17 11:36:36;;;;;;;3.60;1.92;;;34.10;60.70;;;;;;4944562;28;20016;-87
2022/06/17 11:39:33;;;;;;;5.38;2.03;;;35.00;59.20;;;;;;4945044;29;20036;-85
2022/06/17 11:42:17;;;;;;;3.17;1.98;;;35.40;59.20;;;;;;4942490;29;20095;-87
2022/06/17 11:45:11;;;;;;;5.63;1.92;;;36.20;57.50;;;;;;4941427;29;20027;-86
2022/06/17 11:47:37;;;;;;;4.17;1.90;;;36.60;57.30;;;;;;4935822;29;20070;-87
2022/06/17 11:50:19;;;;;;;3.08;1.92;;;37.40;55.90;;;;;;4938590;29;20027;-86
2022/06/17 11:52:46;;;;;;;3.58;1.90;;;37.80;55.00;;;;;;4939768;29;20028;-85
2022/06/17 11:55:12;;;;;;;4.55;1.73;;;37.40;54.50;;;;;;4937160;29;20027;-85
2022/06/17 11:57:40;;;;;;;3.28;1.65;;;36.60;55.20;;;;;;4935970;29;20028;-85
2022/06/17 12:00:43;;;;;;;5.40;1.60;;;37.20;54.80;;;;;;4935779;29;20084;-85
2022/06/17 12:03:09;;;;;;;3.88;1.67;;;37.40;54.70;;;;;;4936487;29;20064;-86
2022/06/17 12:05:39;;;;;;;2.28;1.60;;;37.00;54.70;;;;;;4936740;29;20408;-85
2022/06/17 12:08:31;;;;;;;2.60;1.88;;;35.60;55.00;;;;;;4948383;29;20032;-85
2022/06/17 12:11:12;;;;;;;2.63;1.70;;;35.60;55.60;;;;;;4948269;29;20288;-86
2022/06/17 12:13:48;;;;;;;2.15;1.48;;;36.30;54.80;;;;;;4942587;29;20055;-86
2022/06/17 12:16:38;;;;;;;2.00;1.52;;;37.10;54.20;;;;;;4952996;28;20063;-85
2022/06/17 12:19:11;;;;;;;2.70;1.70;;;36.80;54.30;;;;;;4941096;29;20032;-86
2022/06/17 12:21:57;;;;;;;4.85;1.52;;;35.50;55.00;;;;;;4923855;29;20056;-84
2022/06/17 12:24:59;;;;;;;5.18;1.80;;;35.00;55.90;;;;;;4954706;28;20036;-83
2022/06/17 12:27:31;;;;;;;4.80;1.90;;;33.80;56.50;;;;;;4949928;29;20032;-85
2022/06/17 12:30:06;;;;;;;2.80;1.70;;;33.30;57.10;;;;;;4944943;29;20070;-86
2022/06/17 12:32:48;;;;;;;3.78;1.70;;;34.50;56.30;;;;;;4944747;29;20349;-86
2022/06/17 12:35:38;;;;;;;3.53;1.85;;;34.50;56.10;;;;;;4944875;29;20058;-85
2022/06/17 12:38:18;;;;;;;8.02;1.95;;;35.30;55.70;;;;;;4944708;29;20046;-85
2022/06/17 12:40:53;;;;;;;3.80;1.80;;;35.20;55.50;;;;;;4945401;29;20050;-86
2022/06/17 12:43:39;;;;;;;4.45;1.80;;;35.60;54.90;;;;;;4943440;29;20059;-86
2022/06/17 12:46:15;;;;;;;5.43;1.80;;;36.50;53.90;;;;;;4929022;29;20479;-85
2022/06/17 12:48:49;;;;;;;7.72;2.00;;;37.30;53.00;;;;;;4946755;29;20042;-87
2022/06/17 12:54:38;;;;;;;4.13;1.75;;;37.60;52.40;;;;;;4950078;29;20035;-85
2022/06/17 12:57:17;;;;;;;2.78;1.50;;;38.30;51.90;;;;;;4951553;28;20072;-85
2022/06/17 12:59:53;;;;;;;4.13;1.60;;;37.00;51.90;;;;;;4945532;29;20075;-86
2022/06/17 13:02:57;;;;;;;3.97;1.70;;;36.50;52.50;;;;;;4945651;29;20055;-86
2022/06/17 13:05:43;;;;;;;6.50;2.20;;;35.30;53.00;;;;;;4949296;29;20079;-86
2022/06/17 13:08:12;;;;;;;6.38;1.45;;;34.50;54.50;;;;;;4943384;29;20126;-86
2022/06/17 13:11:00;;;;;;;1.48;1.38;;;34.80;53.90;;;;;;4945932;29;20032;-85
2022/06/17 13:14:01;;;;;;;2.38;1.40;;;36.10;52.70;;;;;;4949172;29;20035;-85
2022/06/17 13:17:08;;;;;;;6.40;1.65;;;37.30;52.70;;;;;;4947970;29;20043;-85
2022/06/17 13:19:59;;;;;;;2.25;1.50;;;38.50;51.10;;;;;;4899567;29;20031;-86
2022/06/17 13:22:46;;;;;;;1.70;1.20;;;38.90;50.60;;;;;;4940116;29;20025;-85
2022/06/17 13:25:35;;;;;;;2.22;1.17;;;37.70;50.60;;;;;;4937102;29;20468;-85
2022/06/17 13:28:17;;;;;;;3.42;1.30;;;38.30;50.60;;;;;;4932460;29;20523;-85
2022/06/17 13:30:49;;;;;;;3.28;1.20;;;38.40;49.30;;;;;;4950090;29;20036;-84
2022/06/17 13:33:24;;;;;;;2.10;1.50;;;38.70;49.40;;;;;;4947432;29;20059;-85
2022/06/17 13:36:20;;;;;;;1.80;1.10;;;39.60;48.60;;;;;;4958032;28;20054;-85
2022/06/17 13:39:10;;;;;;;5.38;1.55;;;40.50;48.30;;;;;;4938070;29;20054;-85
2022/06/17 13:41:44;;;;;;;5.88;1.95;;;40.70;48.00;;;;;;4955232;29;20034;-85
2022/06/17 13:44:13;;;;;;;8.40;2.05;;;41.30;47.60;;;;;;4951283;29;20059;-86
2022/06/17 13:47:02;;;;;;;2.80;1.48;;;41.10;46.60;;;;;;4949356;29;20019;-86